Time;durP1;ratioP1;P1;durP2;ratioP2;P2;SDS_P1;SDS_P2;PMS_P1;PMS_P2;Temp;Humidity;BMP_temperature;BMP_pressure;BME280_temperature;BME280_humidity;BME280_pressure;Samples;Min_cycle;Max_cycle;Signal;HPM_P1;HPM_P2
2023/10/14 00:02:21;;;;;;;1.38;0.73;;;;;;;14.43;100.00;100087.19;5053485;28;20055;-85
2023/10/14 00:04:46;;;;;;;0.63;0.60;;;;;;;14.40;100.00;100082.13;5053755;28;20024;-85
2023/10/14 00:07:17;;;;;;;0.50;0.50;;;;;;;14.40;100.00;100096.03;5053651;28;20238;-85
2023/10/14 00:09:43;;;;;;;0.40;0.40;;;;;;;14.39;100.00;100106.53;5053644;28;20041;-85
2023/10/14 00:12:15;;;;;;;0.43;0.40;;;;;;;14.39;100.00;100137.88;5053696;28;20029;-85
2023/10/14 00:14:43;;;;;;;0.60;0.30;;;;;;;14.32;100.00;100112.00;5053332;28;20033;-85
2023/10/14 00:17:18;;;;;;;0.47;0.40;;;;;;;14.33;100.00;100103.28;5053638;28;20533;-85
2023/10/14 00:19:49;;;;;;;0.57;0.35;;;;;;;14.24;100.00;100097.63;5054049;28;20033;-86
2023/10/14 00:22:15;;;;;;;0.52;0.30;;;;;;;14.25;100.00;100086.22;5053122;28;20029;-87
2023/10/14 00:24:40;;;;;;;0.50;0.25;;;;;;;14.29;100.00;100095.63;5053962;28;20021;-86
2023/10/14 00:27:18;;;;;;;0.20;0.20;;;;;;;14.23;100.00;100114.19;5053181;28;20393;-86
2023/10/14 00:29:43;;;;;;;0.10;0.10;;;;;;;14.24;100.00;100100.22;5013944;28;20546;-88
2023/10/14 00:32:10;;;;;;;0.37;0.13;;;;;;;14.33;100.00;100110.25;5013885;28;20121;-88
2023/10/14 00:34:50;;;;;;;0.20;0.10;;;;;;;14.27;100.00;100106.16;5014882;28;20029;-89
2023/10/14 00:37:18;;;;;;;0.43;0.20;;;;;;;14.20;100.00;100104.69;5013769;28;20072;-89
2023/10/14 00:39:43;;;;;;;0.20;0.10;;;;;;;14.15;100.00;100136.22;5014140;28;20041;-87
2023/10/14 00:42:09;;;;;;;0.00;0.00;;;;;;;14.17;100.00;100146.59;5013665;28;20021;-87
2023/10/14 00:44:51;;;;;;;0.30;0.10;;;;;;;14.18;100.00;100163.97;5012941;28;20106;-87
2023/10/14 00:47:17;;;;;;;0.10;0.10;;;;;;;14.20;100.00;100159.50;5013682;28;20022;-87
2023/10/14 00:49:52;;;;;;;0.07;0.03;;;;;;;14.13;100.00;100165.91;5012963;28;20501;-87
2023/10/14 00:52:18;;;;;;;0.10;0.10;;;;;;;14.13;100.00;100171.94;5013365;28;20026;-86
2023/10/14 00:57:20;;;;;;;0.15;0.10;;;;;;;13.99;100.00;100172.50;5052615;28;20120;-86
2023/10/14 01:00:09;;;;;;;0.10;0.10;;;;;;;14.00;100.00;100184.66;5053499;28;20052;-87
2023/10/14 01:02:56;;;;;;;0.10;0.10;;;;;;;14.00;100.00;100178.59;5053461;28;20384;-87
2023/10/14 01:05:23;;;;;;;0.57;0.20;;;;;;;13.95;100.00;100185.75;5047233;28;20043;-86
2023/10/14 01:08:11;;;;;;;0.20;0.20;;;;;;;13.84;100.00;100173.97;5053261;28;20083;-86
2023/10/14 01:10:38;;;;;;;0.63;0.43;;;;;;;13.84;100.00;100188.78;5053325;28;20025;-88
2023/10/14 01:13:27;;;;;;;1.05;0.68;;;;;;;13.83;100.00;100218.41;5052423;28;20100;-87
2023/10/14 01:16:02;;;;;;;0.88;0.70;;;;;;;13.72;100.00;100234.44;5052204;28;20032;-86
2023/10/14 01:18:27;;;;;;;0.50;0.50;;;;;;;13.54;100.00;100235.97;5052106;28;20056;-85
2023/10/14 01:20:54;;;;;;;3.10;0.90;;;;;;;13.35;100.00;100233.16;5052419;28;20126;-86
2023/10/14 01:23:21;;;;;;;2.25;1.17;;;;;;;13.25;100.00;100228.28;5052747;28;20029;-85
2023/10/14 01:25:52;;;;;;;1.67;0.90;;;;;;;13.24;100.00;100241.38;5052084;28;20048;-85
2023/10/14 01:28:33;;;;;;;1.33;0.73;;;;;;;13.08;100.00;100231.50;5044942;28;20025;-86
2023/10/14 01:31:34;;;;;;;1.00;0.70;;;;;;;13.13;100.00;100263.47;5052305;28;20040;-85
2023/10/14 01:34:04;;;;;;;1.98;0.80;;;;;;;13.02;100.00;100260.41;5052012;28;20032;-85
2023/10/14 01:36:50;;;;;;;2.50;1.00;;;;;;;12.99;100.00;100268.31;5052826;28;20025;-86
2023/10/14 01:39:25;;;;;;;1.17;0.60;;;;;;;13.01;100.00;100276.06;5052043;28;20032;-86
2023/10/14 01:42:08;;;;;;;0.85;0.40;;;;;;;13.04;100.00;100281.16;5046984;28;20041;-85
2023/10/14 01:44:33;;;;;;;0.75;0.25;;;;;;;12.98;100.00;100280.50;5052636;28;20100;-85
2023/10/14 01:47:17;;;;;;;0.60;0.60;;;;;;;12.98;100.00;100290.91;5051866;28;20111;-87
2023/10/14 01:49:43;;;;;;;3.72;0.98;;;;;;;12.99;100.00;100309.97;5052728;28;20025;-86
2023/10/14 01:52:14;;;;;;;3.27;1.10;;;;;;;12.93;100.00;100305.00;5052527;28;20483;-86
2023/10/14 01:54:55;;;;;;;1.70;0.90;;;;;;;12.92;100.00;100335.38;5045580;28;20385;-85
2023/10/14 01:57:32;;;;;;;6.40;1.45;;;;;;;12.72;100.00;100323.00;5051884;28;20077;-86
2023/10/14 01:59:58;;;;;;;4.53;1.40;;;;;;;12.70;100.00;100350.88;5051237;28;20112;-85
2023/10/14 02:02:23;;;;;;;3.57;1.30;;;;;;;12.60;100.00;100349.47;5050647;28;20585;-85
2023/10/14 02:04:58;;;;;;;0.80;0.70;;;;;;;12.63;100.00;100355.41;5051955;28;20017;-85
2023/10/14 02:07:26;;;;;;;1.05;0.60;;;;;;;12.58;100.00;100356.47;5051413;28;20087;-84
2023/10/14 02:10:04;;;;;;;2.20;0.82;;;;;;;12.59;100.00;100373.78;5052116;28;20017;-85
2023/10/14 02:12:34;;;;;;;1.13;0.57;;;;;;;12.58;100.00;100366.88;5052292;28;20448;-85
2023/10/14 02:15:00;;;;;;;2.90;0.73;;;;;;;12.68;100.00;100391.72;5051761;28;20035;-85
2023/10/14 02:17:47;;;;;;;1.90;0.80;;;;;;;12.66;100.00;100396.13;5051873;28;20029;-85
2023/10/14 02:20:31;;;;;;;3.60;1.13;;;;;;;12.61;100.00;100393.66;5043954;28;20052;-85
2023/10/14 02:23:04;;;;;;;2.15;0.98;;;;;;;12.53;100.00;100390.44;5051444;28;20099;-85
2023/10/14 02:25:31;;;;;;;1.88;0.70;;;;;;;12.55;100.00;100393.88;5052034;28;20033;-85
2023/10/14 02:28:14;;;;;;;1.75;0.82;;;;;;;12.54;100.00;100401.69;5055665;28;20370;-84
2023/10/14 02:30:39;;;;;;;1.35;0.93;;;;;;;12.63;100.00;100430.03;5055903;28;20025;-84
2023/10/14 02:33:07;;;;;;;1.23;0.80;;;;;;;12.56;100.00;100411.16;5037811;22;20058;-84
2023/10/14 02:35:45;;;;;;;1.35;0.95;;;;;;;12.62;100.00;100444.81;5015665;28;20025;-84
2023/10/14 02:38:10;;;;;;;1.60;0.60;;;;;;;12.55;100.00;100438.13;5016074;28;20113;-84
2023/10/14 02:40:37;;;;;;;0.53;0.47;;;;;;;12.55;100.00;100447.66;5016122;28;20110;-85
2023/10/14 02:43:25;;;;;;;0.47;0.47;;;;;;;12.59;100.00;100465.72;5015157;28;20030;-84
2023/10/14 02:45:49;;;;;;;;;;;;;;;12.60;100.00;100474.41;5016313;28;20033;-85
2023/10/14 02:48:18;;;;;;;1.07;0.60;;;;;;;12.57;100.00;100487.50;5015793;28;19918;-84
2023/10/14 02:51:06;;;;;;;1.25;0.77;;;;;;;12.45;100.00;100473.09;5015208;28;20430;-85
2023/10/14 02:53:32;;;;;;;0.65;0.57;;;;;;;12.45;100.00;100486.97;5015832;28;20026;-84
2023/10/14 02:56:31;;;;;;;0.43;0.43;;;;;;;12.39;100.00;100489.72;5018267;28;20100;-85
2023/10/14 02:59:18;;;;;;;1.95;0.50;;;;;;;12.46;100.00;100509.50;5035258;28;20028;-85
2023/10/14 03:07:33;;;;;;;0.63;0.50;;;;;;;12.34;100.00;100530.66;5026233;28;20029;-85
2023/10/14 03:11:00;;;;;;;2.05;0.60;;;;;;;12.26;100.00;100556.06;5035241;28;20029;-85
2023/10/14 03:13:12;;;;;;;1.38;0.75;;;;;;;12.04;100.00;100536.66;5020054;28;20033;-85
2023/10/14 03:15:39;;;;;;;0.70;0.70;;;;;;;11.97;100.00;100542.00;5035019;28;20029;-86
2023/10/14 03:18:17;;;;;;;2.22;0.75;;;;;;;11.92;100.00;100559.50;5034073;28;20060;-84
2023/10/14 03:21:00;;;;;;;1.48;0.80;;;;;;;11.90;100.00;100576.00;5018459;28;20030;-85
2023/10/14 03:23:32;;;;;;;2.10;0.90;;;;;;;11.81;100.00;100573.63;5013332;28;20038;-84
2023/10/14 03:28:50;;;;;;;1.02;0.60;;;;;;;11.72;100.00;100592.91;4915806;29;20036;-85
2023/10/14 03:31:17;;;;;;;0.52;0.47;;;;;;;11.70;100.00;100599.88;4916124;29;20597;-85
2023/10/14 03:34:08;;;;;;;1.45;0.50;;;;;;;11.73;100.00;100619.72;4968939;28;20125;-85
2023/10/14 03:36:34;;;;;;;0.95;0.60;;;;;;;11.56;100.00;100600.22;5014912;28;20030;-85
2023/10/14 03:42:13;;;;;;;1.30;0.70;;;;;;;11.51;100.00;100622.00;4915746;29;20120;-84
2023/10/14 03:44:41;;;;;;;0.98;0.70;;;;;;;11.38;100.00;100618.78;4916320;29;20092;-84
2023/10/14 03:47:34;;;;;;;0.85;0.45;;;;;;;11.48;100.00;100648.03;4973074;28;20076;-85
2023/10/14 03:50:23;;;;;;;1.00;0.63;;;;;;;11.31;100.00;100633.69;5014377;28;20022;-85
2023/10/14 03:53:08;;;;;;;1.65;0.65;;;;;;;11.24;100.00;100638.16;5013906;28;20157;-85
2023/10/14 03:55:34;;;;;;;1.95;0.93;;;;;;;11.30;100.00;100655.38;5014503;28;20028;-85
2023/10/14 03:58:05;;;;;;;1.43;0.50;;;;;;;11.18;100.00;100642.63;5014841;28;20108;-86
2023/10/14 04:00:48;;;;;;;0.60;0.57;;;;;;;11.14;100.00;100647.03;5013575;28;20029;-85
2023/10/14 04:03:24;;;;;;;1.80;0.68;;;;;;;11.15;100.00;100666.91;5014363;28;20029;-85
2023/10/14 04:06:14;;;;;;;0.63;0.40;;;;;;;11.04;100.00;100672.34;5008485;28;20084;-85
2023/10/14 04:08:41;;;;;;;1.60;0.80;;;;;;;11.04;100.00;100680.13;5013808;28;20030;-85
2023/10/14 04:11:25;;;;;;;3.08;0.85;;;;;;;11.02;100.00;100686.25;5008231;28;20076;-85
2023/10/14 04:14:14;;;;;;;1.38;0.82;;;;;;;10.89;100.00;100670.03;5013443;28;20049;-85
2023/10/14 04:19:42;;;;;;;0.77;0.68;;;;;;;10.78;100.00;100691.00;5033217;28;20422;-85
2023/10/14 04:22:26;;;;;;;0.82;0.45;;;;;;;10.73;100.00;100692.81;5033240;28;20022;-86
2023/10/14 04:25:07;;;;;;;0.70;0.50;;;;;;;10.69;100.00;100699.81;5033967;28;20516;-85
2023/10/14 04:31:18;;;;;;;0.77;0.60;;;;;;;10.62;100.00;100717.22;5028625;28;20532;-85
2023/10/14 04:33:46;;;;;;;1.65;0.63;;;;;;;10.56;100.00;100716.47;5029479;28;20053;-85
2023/10/14 04:36:38;;;;;;;0.65;0.47;;;;;;;10.50;100.00;100720.03;5032446;28;20145;-85
2023/10/14 04:39:11;;;;;;;1.52;0.50;;;;;;;10.45;100.00;100725.31;5033235;28;20545;-85
2023/10/14 04:44:45;;;;;;;1.25;0.57;;;;;;;10.41;100.00;100748.75;5019339;28;20064;-86
2023/10/14 04:50:08;;;;;;;1.20;0.55;;;;;;;10.42;100.00;100772.06;5012865;28;20490;-85
2023/10/14 04:52:35;;;;;;;4.68;1.27;;;;;;;10.31;100.00;100764.41;5013057;28;20025;-84
2023/10/14 04:55:25;;;;;;;2.30;0.90;;;;;;;10.27;100.00;100767.09;5013344;28;20125;-85
2023/10/14 04:58:14;;;;;;;2.92;1.23;;;;;;;10.18;100.00;100773.25;5012442;28;20073;-85
2023/10/14 05:00:42;;;;;;;1.80;0.80;;;;;;;10.13;100.00;100770.75;5012928;28;20558;-85
2023/10/14 05:03:25;;;;;;;0.70;0.60;;;;;;;10.11;100.00;100776.84;5012269;28;20553;-86
2023/10/14 05:05:56;;;;;;;0.90;0.50;;;;;;;10.19;100.00;100793.13;5013202;28;20390;-85
2023/10/14 05:08:51;;;;;;;1.02;0.73;;;;;;;10.15;100.00;100796.63;5013488;28;20909;-85
2023/10/14 05:11:35;;;;;;;0.90;0.63;;;;;;;10.11;100.00;100793.25;5012310;28;20030;-85
2023/10/14 05:14:14;;;;;;;2.25;1.02;;;;;;;10.18;100.00;100812.16;5013333;28;20113;-85
2023/10/14 05:16:57;;;;;;;1.23;0.75;;;;;;;10.18;100.00;100823.41;5010365;28;20122;-86
2023/10/14 05:19:24;;;;;;;0.77;0.57;;;;;;;10.10;100.00;100808.84;5012939;28;20060;-85
2023/10/14 05:25:04;;;;;;;0.70;0.55;;;;;;;10.03;100.00;100818.44;5012860;28;20402;-85
2023/10/14 05:27:45;;;;;;;1.13;0.60;;;;;;;10.03;100.00;100831.38;5013275;28;20381;-86
2023/10/14 05:30:21;;;;;;;1.00;0.77;;;;;;;9.94;100.00;100828.94;5007536;28;20072;-85
2023/10/14 05:32:48;;;;;;;1.27;0.50;;;;;;;9.91;100.00;100832.38;5010866;28;20105;-85
2023/10/14 05:35:14;;;;;;;1.33;0.60;;;;;;;9.92;100.00;100830.66;5012826;28;20281;-86
2023/10/14 05:37:53;;;;;;;1.37;0.50;;;;;;;10.02;100.00;100856.44;5020747;28;20040;-85
2023/10/14 05:40:21;;;;;;;2.85;1.25;;;;;;;9.98;100.00;100859.09;5031466;28;20038;-85
2023/10/14 05:42:47;;;;;;;1.35;0.80;;;;;;;9.95;100.00;100862.59;5032455;28;20021;-85
2023/10/14 05:45:12;;;;;;;4.17;1.20;;;;;;;9.89;100.00;100863.53;5031613;28;20385;-84
2023/10/14 05:47:53;;;;;;;2.43;1.27;;;;;;;9.92;100.00;100870.41;5032631;28;20492;-86
2023/10/14 05:50:19;;;;;;;1.48;0.90;;;;;;;9.87;100.00;100865.28;5026536;28;20368;-85
2023/10/14 05:52:46;;;;;;;0.90;0.70;;;;;;;9.96;100.00;100885.06;5012077;23;20045;-86
2023/10/14 05:55:11;;;;;;;1.65;0.82;;;;;;;9.96;100.00;100899.75;5010567;28;20036;-86
2023/10/14 05:57:39;;;;;;;1.60;0.90;;;;;;;9.93;100.00;100892.03;5012238;28;20021;-85
2023/10/14 06:00:20;;;;;;;2.85;0.90;;;;;;;9.90;100.00;100900.69;5012027;28;20548;-86
2023/10/14 06:02:51;;;;;;;2.03;0.80;;;;;;;9.92;100.00;100909.28;5018950;28;20112;-86
2023/10/14 06:05:18;;;;;;;1.33;0.85;;;;;;;9.94;100.00;100923.09;5036213;28;20025;-86
2023/10/14 06:07:47;;;;;;;2.05;0.80;;;;;;;9.93;100.00;100923.97;5035822;28;20451;-86
2023/10/14 06:10:18;;;;;;;1.45;0.90;;;;;;;9.93;100.00;100925.72;5036421;28;20100;-86
2023/10/14 06:12:47;;;;;;;2.63;1.08;;;;;;;9.91;100.00;100932.66;5036438;28;20462;-86
2023/10/14 06:15:17;;;;;;;1.70;1.02;;;;;;;9.95;100.00;100932.59;5035514;28;20026;-88
2023/10/14 06:17:43;;;;;;;1.02;0.75;;;;;;;10.00;100.00;100943.78;5022317;28;20030;-86
2023/10/14 06:20:13;;;;;;;1.33;0.70;;;;;;;10.03;100.00;100946.31;5016074;28;20080;-86
2023/10/14 06:22:39;;;;;;;1.48;0.70;;;;;;;10.05;100.00;100952.34;5017532;28;20034;-86
2023/10/14 06:25:06;;;;;;;2.77;1.07;;;;;;;10.09;100.00;100968.72;5033171;28;20028;-86
2023/10/14 06:27:31;;;;;;;3.90;1.23;;;;;;;10.11;100.00;100971.31;5034956;28;20129;-87
2023/10/14 06:29:57;;;;;;;1.63;0.90;;;;;;;10.12;100.00;100973.06;5035727;28;20456;-86
2023/10/14 06:32:23;;;;;;;0.70;0.70;;;;;;;10.12;100.00;100968.72;5035788;28;20457;-86
2023/10/14 06:34:57;;;;;;;1.67;0.77;;;;;;;10.18;100.00;100986.81;5032986;28;20319;-86
2023/10/14 06:37:24;;;;;;;1.20;0.70;;;;;;;10.16;100.00;100979.91;5016956;28;20040;-86
2023/10/14 06:39:50;;;;;;;1.00;0.50;;;;;;;10.22;100.00;100985.03;5035943;28;20021;-87
2023/10/14 06:42:19;;;;;;;1.00;0.60;;;;;;;10.24;100.00;100995.38;5034909;28;20026;-86
2023/10/14 06:44:45;;;;;;;3.30;1.20;;;;;;;10.24;100.00;101003.16;5036072;28;20386;-87
2023/10/14 06:47:11;;;;;;;1.77;1.23;;;;;;;10.23;100.00;101002.31;5035629;28;20501;-86
2023/10/14 06:49:41;;;;;;;1.10;0.90;;;;;;;10.20;100.00;101013.56;5030575;28;20285;-83
2023/10/14 06:52:11;;;;;;;1.45;0.75;;;;;;;10.18;100.00;101028.31;5014713;28;20486;-85
2023/10/14 06:54:37;;;;;;;1.73;0.70;;;;;;;10.14;100.00;101024.03;5016051;28;20390;-87
2023/10/14 06:57:07;;;;;;;1.00;0.70;;;;;;;10.10;100.00;101024.91;5020524;28;20029;-87
2023/10/14 06:59:35;;;;;;;0.85;0.85;;;;;;;10.15;100.00;101033.53;5027241;28;20467;-86
2023/10/14 07:02:01;;;;;;;2.55;1.13;;;;;;;10.13;100.00;101032.66;5015771;28;20022;-87
2023/10/14 07:04:26;;;;;;;1.40;1.00;;;;;;;10.15;100.00;101038.69;5014487;28;20033;-85
2023/10/14 07:06:52;;;;;;;4.77;1.67;;;;;;;10.14;100.00;101049.06;5015490;28;20063;-87
2023/10/14 07:09:17;;;;;;;1.93;1.37;;;;;;;10.11;100.00;101044.78;5015352;28;20490;-86
2023/10/14 07:11:48;;;;;;;4.33;1.60;;;;;;;10.17;100.00;101046.47;5014608;28;20034;-85
2023/10/14 07:14:14;;;;;;;7.68;1.60;;;;;;;10.18;100.00;101050.78;5013890;28;20586;-86
2023/10/14 07:16:40;;;;;;;4.03;1.40;;;;;;;10.19;100.00;101058.53;5018596;28;20029;-85
2023/10/14 07:19:06;;;;;;;2.47;1.30;;;;;;;10.19;100.00;101052.50;5019228;28;20032;-86
2023/10/14 07:21:31;;;;;;;3.50;1.57;;;;;;;10.19;100.00;101063.72;5015329;28;20034;-84
2023/10/14 07:23:58;;;;;;;5.33;1.50;;;;;;;10.24;100.00;101060.22;5014352;28;20045;-86
2023/10/14 07:26:29;;;;;;;3.85;1.48;;;;;;;10.26;100.00;101059.31;5013669;28;20041;-86
2023/10/14 07:28:56;;;;;;;2.90;1.38;;;;;;;10.24;100.00;101055.03;5015167;28;20022;-86
2023/10/14 07:31:23;;;;;;;;;;;;;;;10.35;100.00;101072.22;5014550;28;20032;-86
2023/10/14 07:34:16;;;;;;;2.80;1.42;;;;;;;10.27;100.00;101066.22;5015224;28;19913;-86
2023/10/14 07:36:42;;;;;;;1.80;1.25;;;;;;;10.35;100.00;101072.22;5015113;28;20038;-86
2023/10/14 07:41:52;;;;;;;2.05;1.20;;;;;;;10.38;100.00;101099.91;5015298;28;20045;-86
2023/10/14 07:44:19;;;;;;;4.13;1.63;;;;;;;10.30;100.00;101079.19;5014712;28;20073;-87
2023/10/14 07:46:44;;;;;;;5.85;1.88;;;;;;;10.35;100.00;101100.75;5016808;28;20284;-88
2023/10/14 07:49:27;;;;;;;4.70;1.50;;;;;;;10.29;100.00;101082.66;5014993;28;20026;-87
2023/10/14 07:51:54;;;;;;;2.70;1.48;;;;;;;10.34;100.00;101098.16;5014445;28;20030;-87
2023/10/14 07:54:21;;;;;;;2.10;1.25;;;;;;;10.43;100.00;101107.63;5014687;28;20073;-87
2023/10/14 07:57:02;;;;;;;3.17;1.10;;;;;;;10.39;100.00;101099.03;5008753;28;20021;-88
2023/10/14 07:59:34;;;;;;;2.58;1.23;;;;;;;10.54;100.00;101121.34;5013595;28;20025;-86
2023/10/14 08:02:00;;;;;;;2.90;0.98;;;;;;;10.52;100.00;101109.28;5014581;28;20026;-87
2023/10/14 08:04:37;;;;;;;3.50;1.30;;;;;;;10.55;100.00;101119.59;5014064;28;20560;-87
2023/10/14 08:07:06;;;;;;;4.65;1.30;;;;;;;10.59;100.00;101118.69;5013443;28;20026;-86
2023/10/14 08:09:32;;;;;;;1.13;0.90;;;;;;;10.65;100.00;101126.41;5014266;28;20057;-87
2023/10/14 08:12:14;;;;;;;1.77;1.35;;;;;;;10.69;100.00;101125.50;5013978;28;20480;-86
2023/10/14 08:14:40;;;;;;;1.77;0.90;;;;;;;10.76;100.00;101132.34;5012502;28;20030;-86
2023/10/14 08:17:11;;;;;;;2.10;1.03;;;;;;;10.79;100.00;101137.50;5014716;28;20180;-87
2023/10/14 08:19:56;;;;;;;5.28;1.55;;;;;;;10.91;100.00;101156.41;5014941;28;20517;-89
2023/10/14 08:22:21;;;;;;;3.88;1.20;;;;;;;10.81;100.00;101140.06;5014862;28;20098;-91
2023/10/14 08:24:47;;;;;;;4.20;1.07;;;;;;;10.88;100.00;101151.25;5013117;28;20022;-84
2023/10/14 08:27:12;;;;;;;5.17;1.40;;;;;;;10.97;100.00;101153.75;5013086;28;20022;-86
2023/10/14 08:29:53;;;;;;;1.77;1.10;;;;;;;11.09;100.00;101165.72;5014479;28;20088;-85
2023/10/14 08:32:23;;;;;;;4.57;1.40;;;;;;;11.13;100.00;101167.41;5013669;28;20029;-83
2023/10/14 08:34:49;;;;;;;5.45;1.38;;;;;;;11.23;100.00;101165.53;5012975;28;20021;-82
2023/10/14 08:37:14;;;;;;;3.50;1.50;;;;;;;11.32;100.00;101168.03;5013496;28;20026;-85
2023/10/14 08:39:40;;;;;;;4.10;1.27;;;;;;;11.43;100.00;101168.75;5013833;28;20022;-82
2023/10/14 08:42:09;;;;;;;3.87;1.27;;;;;;;11.54;100.00;101189.41;5013102;28;20478;-83
2023/10/14 08:44:40;;;;;;;2.80;1.05;;;;;;;11.64;100.00;101195.34;5013883;28;20025;-84
2023/10/14 08:47:13;;;;;;;3.42;1.60;;;;;;;11.73;100.00;101200.41;5013539;28;20026;-85
2023/10/14 08:49:40;;;;;;;4.97;1.13;;;;;;;11.84;100.00;101195.03;5012711;28;20036;-83
2023/10/14 08:52:09;;;;;;;5.22;1.23;;;;;;;11.91;100.00;101201.00;5012990;28;20033;-84
2023/10/14 08:54:36;;;;;;;2.88;1.10;;;;;;;11.99;100.00;101199.16;5013506;28;20022;-85
2023/10/14 08:57:02;;;;;;;4.50;1.50;;;;;;;12.13;99.11;101216.31;5012943;28;20030;-84
2023/10/14 08:59:27;;;;;;;3.13;1.30;;;;;;;12.20;99.49;101216.19;5013626;28;20032;-84
2023/10/14 09:01:56;;;;;;;4.53;1.40;;;;;;;12.26;98.32;101211.78;5012946;28;20509;-85
2023/10/14 09:04:27;;;;;;;1.85;1.10;;;;;;;12.39;97.28;101221.06;5012549;28;20878;-85
2023/10/14 09:06:52;;;;;;;4.20;1.15;;;;;;;12.46;95.25;101219.22;5013458;28;20390;-85
2023/10/14 09:09:23;;;;;;;3.00;1.17;;;;;;;12.58;96.81;101228.59;5012181;28;20088;-84
2023/10/14 09:11:48;;;;;;;2.25;1.15;;;;;;;12.66;94.98;101231.91;5013435;28;20052;-84
2023/10/14 09:14:14;;;;;;;3.93;1.17;;;;;;;12.73;95.28;101230.91;5013000;28;20029;-85
2023/10/14 09:16:41;;;;;;;1.42;1.00;;;;;;;12.74;95.79;101213.56;5012026;28;20032;-85
2023/10/14 09:19:23;;;;;;;5.90;1.17;;;;;;;12.90;92.30;101227.16;5011440;28;20478;-86
2023/10/14 09:21:49;;;;;;;3.22;1.40;;;;;;;13.02;94.92;101231.25;5013313;28;20370;-85
2023/10/14 09:24:18;;;;;;;3.03;1.03;;;;;;;13.04;95.02;101225.16;5012386;28;20022;-86
2023/10/14 09:26:46;;;;;;;4.65;1.35;;;;;;;13.20;93.97;101235.25;5013519;28;20029;-83
2023/10/14 09:29:24;;;;;;;4.93;1.50;;;;;;;13.23;91.45;101224.75;5004528;28;20030;-86
2023/10/14 09:31:51;;;;;;;3.50;1.38;;;;;;;13.37;90.80;101233.16;5012025;28;20116;-85
2023/10/14 09:34:23;;;;;;;6.95;1.50;;;;;;;13.48;91.03;101230.34;5012993;28;20033;-84
2023/10/14 09:36:51;;;;;;;3.50;1.40;;;;;;;13.58;90.53;101237.09;5012274;28;20030;-86
2023/10/14 09:39:24;;;;;;;3.30;1.40;;;;;;;13.67;90.61;101235.19;5011999;28;20030;-86
2023/10/14 09:41:52;;;;;;;5.40;1.50;;;;;;;13.62;85.93;101240.50;5013101;28;20037;-85
2023/10/14 09:44:18;;;;;;;8.52;1.50;;;;;;;13.64;85.27;101241.31;5012125;28;20033;-86
2023/10/14 09:46:45;;;;;;;;;;;;;;;13.73;88.43;101242.88;5012820;28;20057;-85
2023/10/14 09:49:10;;;;;;;;;;;;;;;13.75;85.67;101249.75;5013530;28;19960;-88
2023/10/14 09:51:36;;;;;;;4.70;1.40;;;;;;;13.75;80.79;101247.16;5012183;28;19960;-88
2023/10/14 09:54:03;;;;;;;6.60;1.77;;;;;;;13.75;85.37;101235.88;5012906;28;20050;-82
2023/10/14 09:56:30;;;;;;;3.38;1.40;;;;;;;13.84;83.92;101247.88;5013418;28;20050;-88
2023/10/14 09:58:56;;;;;;;6.75;1.60;;;;;;;13.94;81.61;101256.31;5012471;28;20018;-86
2023/10/14 10:01:24;;;;;;;5.38;1.85;;;;;;;14.03;80.77;101256.09;5011409;28;20034;-86
2023/10/14 10:04:13;;;;;;;6.35;1.75;;;;;;;14.10;80.16;101255.09;5008938;28;20030;-90
2023/10/14 10:07:35;;;;;;;5.10;1.55;;;;;;;14.15;76.33;101262.81;5012209;28;20026;-88
2023/10/14 10:10:36;;;;;;;7.53;1.83;;;;;;;14.28;81.82;101252.91;5013099;28;20108;-87
2023/10/14 10:13:17;;;;;;;4.18;1.40;;;;;;;14.33;79.53;101254.53;5012255;28;20030;-87
2023/10/14 10:15:44;;;;;;;4.30;1.50;;;;;;;14.43;76.76;101264.72;5012653;28;20042;-87
2023/10/14 10:18:12;;;;;;;5.72;1.48;;;;;;;14.48;78.57;101266.34;5012686;28;20034;-86
2023/10/14 10:20:56;;;;;;;2.85;1.13;;;;;;;14.41;78.71;101269.16;5011975;28;20018;-86
2023/10/14 10:23:24;;;;;;;5.32;1.83;;;;;;;14.38;74.39;101264.84;5039353;23;20045;-87
2023/10/14 10:25:52;;;;;;;6.50;1.65;;;;;;;14.46;72.77;101275.13;5032201;28;20500;-88
2023/10/14 10:28:23;;;;;;;6.00;1.60;;;;;;;14.54;75.57;101270.56;5033341;28;20083;-87
2023/10/14 10:30:48;;;;;;;6.53;1.38;;;;;;;14.56;75.66;101273.16;5032737;28;20079;-81
2023/10/14 10:33:14;;;;;;;2.83;1.13;;;;;;;14.61;78.74;101279.09;5032271;28;20026;-85
2023/10/14 10:36:11;;;;;;;3.77;1.60;;;;;;;14.59;73.64;101284.38;5030848;28;20105;-87
2023/10/14 10:38:37;;;;;;;5.22;1.60;;;;;;;14.56;74.04;101284.44;5032183;28;20021;-87
2023/10/14 10:41:24;;;;;;;3.47;1.07;;;;;;;14.60;72.53;101290.44;5032433;28;20124;-90
2023/10/14 10:43:50;;;;;;;2.00;1.05;;;;;;;14.55;70.76;101287.09;5033046;28;20386;-92
2023/10/14 10:46:39;;;;;;;4.55;1.25;;;;;;;14.70;68.59;101286.72;5032681;28;20029;-93
2023/10/14 10:49:06;;;;;;;4.47;1.40;;;;;;;14.87;74.01;101283.66;5036488;28;20101;-91
2023/10/14 10:51:33;;;;;;;2.42;1.02;;;;;;;15.16;74.65;101292.50;5036683;28;20025;-91
2023/10/14 10:53:59;;;;;;;3.65;1.30;;;;;;;15.34;71.40;101293.75;5036856;28;20031;-92
2023/10/14 10:56:34;;;;;;;5.13;1.60;;;;;;;15.42;65.88;101301.41;5023767;28;20017;-90
2023/10/14 10:59:04;;;;;;;5.40;1.60;;;;;;;15.48;69.47;101297.75;5026186;28;20033;-91
2023/10/14 11:01:31;;;;;;;3.88;1.50;;;;;;;15.48;65.95;101302.97;5043411;22;20056;-92
2023/10/14 11:03:58;;;;;;;5.78;1.55;;;;;;;15.53;68.43;101298.47;5036583;28;20021;-89
2023/10/14 11:06:25;;;;;;;2.60;1.30;;;;;;;15.59;64.29;101301.75;5036273;28;20084;-91
2023/10/14 11:08:54;;;;;;;5.88;1.75;;;;;;;15.63;67.69;101299.06;5035239;28;20053;-91
2023/10/14 11:11:21;;;;;;;6.45;1.88;;;;;;;15.65;69.05;101307.72;5036232;28;20021;-92
2023/10/14 11:13:46;;;;;;;;;;;;;;;15.73;67.49;101303.13;5036565;28;20025;-91
2023/10/14 11:16:14;;;;;;;5.80;1.80;;;;;;;15.68;62.32;101307.63;5035415;28;19917;-91
2023/10/14 11:18:47;;;;;;;5.18;1.90;;;;;;;15.56;64.10;101308.84;5035653;28;20031;-92
2023/10/14 11:21:14;;;;;;;3.45;1.42;;;;;;;15.34;68.56;101306.84;5036232;28;20055;-91
2023/10/14 11:23:41;;;;;;;2.85;1.30;;;;;;;15.10;68.92;101300.50;5019945;28;20478;-91
2023/10/14 11:26:15;;;;;;;3.03;1.52;;;;;;;14.86;67.61;101315.09;5017674;28;20041;-90
2023/10/14 11:28:45;;;;;;;5.85;1.60;;;;;;;14.57;69.08;101311.44;5022140;28;20054;-92
2023/10/14 11:31:11;;;;;;;2.60;1.27;;;;;;;14.30;66.72;101314.63;5035572;28;20116;-92
2023/10/14 11:33:36;;;;;;;3.30;1.23;;;;;;;14.11;68.68;101313.34;5035029;28;20029;-85
2023/10/14 11:36:03;;;;;;;2.93;1.30;;;;;;;13.92;70.14;101319.00;5035748;28;20025;-91
2023/10/14 11:38:30;;;;;;;5.75;1.50;;;;;;;13.66;66.57;101311.72;5035096;28;20025;-91
2023/10/14 11:40:58;;;;;;;5.78;1.48;;;;;;;13.50;67.96;101325.06;5035929;28;20478;-91
2023/10/14 11:43:23;;;;;;;2.40;1.17;;;;;;;13.37;68.35;101321.81;5035433;28;20069;-91
2023/10/14 11:45:49;;;;;;;4.17;1.40;;;;;;;13.31;70.34;101327.13;5035068;28;20199;-92
2023/10/14 11:48:28;;;;;;;2.97;1.00;;;;;;;13.28;71.23;101329.81;5035521;28;20021;-91
2023/10/14 11:51:00;;;;;;;4.30;1.08;;;;;;;13.35;71.43;101328.78;5035030;28;20537;-92
2023/10/14 11:53:28;;;;;;;5.20;1.50;;;;;;;13.43;68.41;101336.50;5035261;28;20021;-91
2023/10/14 11:55:58;;;;;;;6.43;1.58;;;;;;;13.33;67.39;101319.28;5035576;28;20025;-91
2023/10/14 11:58:44;;;;;;;3.70;1.40;;;;;;;13.30;68.92;101330.63;5034205;28;20021;-91
2023/10/14 12:01:09;;;;;;;4.40;1.63;;;;;;;13.14;67.75;101319.63;5032948;28;20060;-91
2023/10/14 12:03:50;;;;;;;3.97;1.60;;;;;;;13.17;69.79;101326.53;5035510;28;20029;-91
2023/10/14 12:06:16;;;;;;;3.95;1.40;;;;;;;13.27;69.35;101331.53;5034315;28;20348;-90
2023/10/14 12:08:42;;;;;;;5.18;1.30;;;;;;;13.38;70.64;101328.75;5034673;28;20022;-91
2023/10/14 12:11:28;;;;;;;3.53;1.30;;;;;;;13.51;70.50;101329.38;5034932;28;20067;-91
2023/10/14 12:13:53;;;;;;;3.70;1.10;;;;;;;13.65;70.90;101328.25;5034294;28;20031;-91
2023/10/14 12:16:21;;;;;;;3.58;1.13;;;;;;;13.71;69.66;101326.38;5034897;28;20041;-91
2023/10/14 12:18:59;;;;;;;2.42;1.10;;;;;;;13.69;69.28;101324.66;5035023;28;20546;-92